createdAt,value
2019-04-27T00:00:11.634Z,0.87
2019-04-27T00:03:25.063Z,1.20
2019-04-27T00:06:30.988Z,1.00
2019-04-27T00:09:43.242Z,1.20
2019-04-27T00:12:45.478Z,1.00
2019-04-27T00:15:56.093Z,1.27
2019-04-27T00:19:01.920Z,1.43
2019-04-27T00:22:06.809Z,1.37
2019-04-27T00:25:13.110Z,0.80
2019-04-27T00:28:16.411Z,0.93
2019-04-27T00:31:23.303Z,0.87
2019-04-27T00:34:26.663Z,1.10
2019-04-27T00:37:40.330Z,0.90
2019-04-27T00:40:46.174Z,1.00
2019-04-27T00:43:49.422Z,0.87
2019-04-27T00:46:53.375Z,0.80
2019-04-27T00:49:58.625Z,0.90
2019-04-27T00:53:03.447Z,0.83
2019-04-27T00:56:18.339Z,0.67
2019-04-27T00:59:23.823Z,0.80
2019-04-27T01:02:28.789Z,1.00
2019-04-27T01:05:33.676Z,0.93
2019-04-27T01:08:37.053Z,0.70
2019-04-27T01:11:40.301Z,0.70
2019-04-27T01:14:49.478Z,0.73
2019-04-27T01:18:07.062Z,0.80
2019-04-27T01:20:59.591Z,0.60
2019-04-27T01:24:02.826Z,0.80
2019-04-27T01:27:11.587Z,0.80
2019-04-27T01:30:16.464Z,0.60
2019-04-27T01:33:21.655Z,0.70
2019-04-27T01:36:24.894Z,0.80
2019-04-27T01:39:33.051Z,0.67
2019-04-27T01:42:36.308Z,1.07
2019-04-27T01:45:39.546Z,0.83
2019-04-27T01:48:42.779Z,0.70
2019-04-27T01:51:46.025Z,0.80
2019-04-27T01:54:50.143Z,0.80
2019-04-27T01:57:53.390Z,0.80
2019-04-27T02:01:07.078Z,0.80
2019-04-27T02:04:23.999Z,0.80
2019-04-27T02:07:31.367Z,0.90
2019-04-27T02:10:34.607Z,0.70
2019-04-27T02:13:38.890Z,0.70
2019-04-27T02:16:42.139Z,0.80
2019-04-27T02:19:45.370Z,0.60
2019-04-27T02:22:50.636Z,0.90
2019-04-27T02:25:54.563Z,0.50
2019-04-27T02:29:22.852Z,0.80
2019-04-27T02:32:30.775Z,0.80
2019-04-27T02:35:34.880Z,0.70
2019-04-27T02:38:40.385Z,0.80
2019-04-27T02:41:45.027Z,0.70
2019-04-27T02:44:49.417Z,0.70
2019-04-27T02:47:53.879Z,0.63
2019-04-27T02:51:01.565Z,0.80
2019-04-27T02:54:04.796Z,0.77
2019-04-27T02:57:10.145Z,0.93
2019-04-27T03:00:13.908Z,0.77
2019-04-27T03:03:17.179Z,0.70
2019-04-27T03:06:20.424Z,0.90
2019-04-27T03:09:23.672Z,0.57
2019-04-27T03:12:29.528Z,0.87
2019-04-27T03:15:43.160Z,0.80
2019-04-27T03:19:10.378Z,0.70
2019-04-27T03:22:16.402Z,0.70
2019-04-27T03:25:21.296Z,0.80
2019-04-27T03:28:24.826Z,0.87
2019-04-27T03:31:32.787Z,0.70
2019-04-27T03:34:33.961Z,0.80
2019-04-27T03:37:40.401Z,0.60
2019-04-27T03:40:43.103Z,0.70
2019-04-27T03:43:46.347Z,0.70
2019-04-27T03:46:49.740Z,0.63
2019-04-27T03:49:53.029Z,0.70
2019-04-27T03:53:15.076Z,0.70
2019-04-27T03:56:32.111Z,0.70
2019-04-27T03:59:40.389Z,0.70
2019-04-27T04:02:43.808Z,0.83
2019-04-27T04:05:47.058Z,0.60
2019-04-27T04:08:54.906Z,0.77
2019-04-27T04:12:02.291Z,0.70
2019-04-27T04:15:09.793Z,0.67
2019-04-27T04:18:11.963Z,0.73
2019-04-27T04:21:21.023Z,0.70
2019-04-27T04:24:28.171Z,0.70
2019-04-27T04:27:29.938Z,0.60
2019-04-27T04:30:33.384Z,1.10
2019-04-27T04:33:36.698Z,1.00
2019-04-27T04:36:42.418Z,0.70
2019-04-27T04:39:44.899Z,0.90
2019-04-27T04:42:55.476Z,0.80
2019-04-27T04:46:16.617Z,0.80
2019-04-27T04:49:19.863Z,0.80
2019-04-27T04:52:24.069Z,0.80
2019-04-27T04:55:27.326Z,0.70
2019-04-27T04:58:30.561Z,0.70
2019-04-27T05:01:33.818Z,0.70
2019-04-27T05:04:39.092Z,0.70
2019-04-27T05:07:42.434Z,0.93
2019-04-27T05:10:46.619Z,0.80
2019-04-27T05:13:51.755Z,0.87
2019-04-27T05:16:55.046Z,0.80
2019-04-27T05:19:59.065Z,0.90
2019-04-27T05:23:02.375Z,0.70
2019-04-27T05:26:06.583Z,0.70
2019-04-27T05:29:09.835Z,0.80
2019-04-27T05:32:14.000Z,1.00
2019-04-27T05:35:17.239Z,1.00
2019-04-27T05:38:23.447Z,0.90
2019-04-27T05:41:26.751Z,0.80
2019-04-27T05:44:55.053Z,0.83
2019-04-27T05:48:00.716Z,0.90
2019-04-27T05:51:06.440Z,0.80
2019-04-27T05:54:09.694Z,0.80
2019-04-27T05:57:13.884Z,0.80
2019-04-27T06:00:19.275Z,0.70
2019-04-27T06:03:22.506Z,0.90
2019-04-27T06:06:25.835Z,0.70
2019-04-27T06:09:29.108Z,1.20
2019-04-27T06:12:32.392Z,1.00
2019-04-27T06:15:35.618Z,1.00
2019-04-27T06:18:39.821Z,1.10
2019-04-27T06:21:45.027Z,1.50
2019-04-27T06:24:54.084Z,1.37
2019-04-27T06:27:53.230Z,1.43
2019-04-27T06:30:56.507Z,1.40
2019-04-27T06:34:00.679Z,1.60
2019-04-27T06:37:03.925Z,1.70
2019-04-27T06:40:09.663Z,1.70
2019-04-27T06:43:14.048Z,1.60
2019-04-27T06:46:17.300Z,1.53
2019-04-27T06:49:20.530Z,1.50
2019-04-27T06:52:23.870Z,1.80
2019-04-27T06:55:29.161Z,1.60
2019-04-27T06:58:33.347Z,1.77
2019-04-27T07:01:38.939Z,1.80
2019-04-27T07:04:43.362Z,2.03
2019-04-27T07:07:46.606Z,1.90
2019-04-27T07:10:49.842Z,2.23
2019-04-27T07:13:53.089Z,3.23
2019-04-27T07:17:01.446Z,2.63
2019-04-27T07:20:06.549Z,2.20
2019-04-27T07:23:10.826Z,2.77
2019-04-27T07:26:14.058Z,3.53
2019-04-27T07:29:19.188Z,3.07
2019-04-27T07:32:23.361Z,3.57
2019-04-27T07:35:26.615Z,2.43
2019-04-27T07:38:29.859Z,1.90
2019-04-27T07:41:35.731Z,2.40
2019-04-27T07:44:40.603Z,2.10
2019-04-27T07:47:49.416Z,2.30
2019-04-27T07:50:52.726Z,1.87
2019-04-27T07:53:55.975Z,2.30
2019-04-27T07:56:59.216Z,1.90
2019-04-27T08:00:08.844Z,2.23
2019-04-27T08:03:12.369Z,2.10
2019-04-27T08:06:16.626Z,2.83
2019-04-27T08:09:19.926Z,2.00
2019-04-27T08:12:23.258Z,1.93
2019-04-27T08:15:33.494Z,1.87
2019-04-27T08:18:39.621Z,1.60
2019-04-27T08:21:50.005Z,2.53
2019-04-27T08:24:54.214Z,1.97
2019-04-27T08:28:00.358Z,4.23
2019-04-27T08:31:09.095Z,2.03
2019-04-27T08:34:30.288Z,1.90
2019-04-27T08:37:33.530Z,4.77
2019-04-27T08:40:36.776Z,2.33
2019-04-27T08:43:40.026Z,1.93
2019-04-27T08:46:43.307Z,2.37
2019-04-27T08:49:46.633Z,4.10
2019-04-27T08:52:57.706Z,3.37
2019-04-27T08:56:00.985Z,4.00
2019-04-27T08:59:04.269Z,2.90
2019-04-27T09:02:08.877Z,3.23
2019-04-27T09:05:12.179Z,3.60
2019-04-27T09:08:35.025Z,2.83
2019-04-27T09:11:52.827Z,3.30
2019-04-27T09:15:00.635Z,4.03
2019-04-27T09:18:06.613Z,2.80
2019-04-27T09:21:10.610Z,2.40
2019-04-27T09:24:13.997Z,2.10
2019-04-27T09:27:19.790Z,2.40
2019-04-27T09:30:24.354Z,1.80
2019-04-27T09:33:33.381Z,2.33
2019-04-27T09:36:37.548Z,2.80
2019-04-27T09:39:46.096Z,1.67
2019-04-27T09:42:50.465Z,2.23
2019-04-27T09:45:55.802Z,2.00
2019-04-27T09:49:00.139Z,1.60
2019-04-27T09:52:06.349Z,1.63
2019-04-27T09:55:10.009Z,1.50
2019-04-27T09:58:13.374Z,1.50
2019-04-27T10:01:18.125Z,1.53
2019-04-27T10:04:21.700Z,1.70
2019-04-27T10:07:26.707Z,1.33
2019-04-27T10:10:32.231Z,1.73
2019-04-27T10:13:36.584Z,1.60
2019-04-27T10:16:42.604Z,1.30
2019-04-27T10:19:46.821Z,1.20
2019-04-27T10:22:50.135Z,2.53
2019-04-27T10:25:53.590Z,1.77
2019-04-27T10:29:00.003Z,1.50
2019-04-27T10:32:03.314Z,2.60
2019-04-27T10:35:07.874Z,3.40
2019-04-27T10:38:11.209Z,1.57
2019-04-27T10:41:15.871Z,3.47
2019-04-27T10:44:19.176Z,1.57
2019-04-27T10:47:22.542Z,1.53
2019-04-27T10:50:26.566Z,1.40
2019-04-27T10:53:31.161Z,1.13
2019-04-27T10:56:36.095Z,1.43
2019-04-27T10:59:39.580Z,2.37
2019-04-27T11:02:42.882Z,1.40
2019-04-27T11:05:57.018Z,2.70
2019-04-27T11:09:00.332Z,2.13
2019-04-27T11:12:06.875Z,1.37
2019-04-27T11:15:10.409Z,2.73
2019-04-27T11:18:13.693Z,2.33
2019-04-27T11:21:16.989Z,2.10
2019-04-27T11:24:24.178Z,2.07
2019-04-27T11:27:27.479Z,1.50
2019-04-27T11:30:31.814Z,2.70
2019-04-27T11:33:36.371Z,2.80
2019-04-27T11:36:51.176Z,1.47
2019-04-27T11:39:55.963Z,2.23
2019-04-27T11:43:01.355Z,1.67
2019-04-27T11:46:06.159Z,2.03
2019-04-27T11:49:11.817Z,1.67
2019-04-27T11:52:16.981Z,1.93
2019-04-27T11:55:28.154Z,1.73
2019-04-27T11:58:31.431Z,1.97
2019-04-27T12:01:35.826Z,5.17
2019-04-27T12:04:39.997Z,1.87
2019-04-27T12:07:43.296Z,2.43
2019-04-27T12:10:48.319Z,3.87
2019-04-27T12:13:51.737Z,3.80
2019-04-27T12:16:56.190Z,2.13
2019-04-27T12:20:00.547Z,2.20
2019-04-27T12:23:03.880Z,1.57
2019-04-27T12:26:09.735Z,2.13
2019-04-27T12:29:16.520Z,1.60
2019-04-27T12:32:20.024Z,1.60
2019-04-27T12:35:25.708Z,1.37
2019-04-27T12:38:32.586Z,5.10
2019-04-27T12:41:37.786Z,2.43
2019-04-27T12:44:45.174Z,1.93
2019-04-27T12:47:56.667Z,1.40
2019-04-27T12:50:59.970Z,1.60
2019-04-27T12:54:08.934Z,2.43
2019-04-27T12:57:32.615Z,1.40
2019-04-27T13:00:37.562Z,3.10
2019-04-27T13:03:40.820Z,1.47
2019-04-27T13:06:46.993Z,1.70
2019-04-27T13:09:51.291Z,1.57
2019-04-27T13:12:56.193Z,1.50
2019-04-27T13:15:59.544Z,1.30
2019-04-27T13:19:06.024Z,1.73
2019-04-27T13:22:07.807Z,1.47
2019-04-27T13:25:12.039Z,1.40
2019-04-27T13:28:15.335Z,1.47
2019-04-27T13:31:18.612Z,1.10
2019-04-27T13:34:22.769Z,1.17
2019-04-27T13:37:36.352Z,1.90
2019-04-27T13:40:41.541Z,1.50
2019-04-27T13:43:45.635Z,1.40
2019-04-27T13:47:02.263Z,1.80
2019-04-27T13:50:16.914Z,1.30
2019-04-27T13:53:20.147Z,1.83
2019-04-27T13:56:24.368Z,4.13
2019-04-27T13:59:28.567Z,2.97
2019-04-27T14:02:32.654Z,1.30
2019-04-27T14:05:37.718Z,2.53
2019-04-27T14:08:40.953Z,1.30
2019-04-27T14:11:44.206Z,1.23
2019-04-27T14:14:48.958Z,1.53
2019-04-27T14:17:52.286Z,1.13
2019-04-27T14:20:56.458Z,1.20
2019-04-27T14:23:59.755Z,2.23
2019-04-27T14:27:03.041Z,2.17
2019-04-27T14:30:09.085Z,1.30
2019-04-27T14:33:12.435Z,1.40
2019-04-27T14:36:15.692Z,1.73
2019-04-27T14:39:18.933Z,1.23
2019-04-27T14:42:22.184Z,1.97
2019-04-27T14:45:25.414Z,1.30
2019-04-27T14:48:30.619Z,1.33
2019-04-27T14:51:33.872Z,1.10
2019-04-27T14:54:47.417Z,1.20
2019-04-27T14:57:42.107Z,1.20
2019-04-27T15:00:45.343Z,1.20
2019-04-27T15:03:48.601Z,1.57
2019-04-27T15:06:51.841Z,1.10
2019-04-27T15:09:57.524Z,1.20
2019-04-27T15:13:01.590Z,1.10
2019-04-27T15:16:08.399Z,1.37
2019-04-27T15:19:17.850Z,2.07
2019-04-27T15:22:23.188Z,1.10
2019-04-27T15:25:26.534Z,1.10
2019-04-27T15:28:35.628Z,1.00
2019-04-27T15:31:41.560Z,1.23
2019-04-27T15:34:52.236Z,1.33
2019-04-27T15:37:59.801Z,1.57
2019-04-27T15:41:04.761Z,1.67
2019-04-27T15:44:09.556Z,1.10
2019-04-27T15:47:13.712Z,1.20
2019-04-27T15:50:23.580Z,1.30
2019-04-27T15:53:24.747Z,2.80
2019-04-27T15:56:30.481Z,1.63
2019-04-27T15:59:39.562Z,2.77
2019-04-27T16:02:44.428Z,1.13
2019-04-27T16:05:48.725Z,1.63
2019-04-27T16:08:51.976Z,1.20
2019-04-27T16:12:02.015Z,1.23
2019-04-27T16:15:01.120Z,2.23
2019-04-27T16:18:04.378Z,2.70
2019-04-27T16:21:10.592Z,1.43
2019-04-27T16:24:23.657Z,1.73
2019-04-27T16:27:31.514Z,4.00
2019-04-27T16:30:50.678Z,1.57
2019-04-27T16:34:21.334Z,1.03
2019-04-27T16:37:33.747Z,1.87
2019-04-27T16:41:03.399Z,2.10
2019-04-27T16:44:28.975Z,2.23
2019-04-27T16:47:41.062Z,1.47
2019-04-27T16:50:47.207Z,1.63
2019-04-27T16:54:00.350Z,1.90
2019-04-27T16:57:11.337Z,1.20
2019-04-27T17:07:23.053Z,1.73
2019-04-27T17:10:34.045Z,1.70
2019-04-27T17:17:12.092Z,2.50
2019-04-27T17:20:23.800Z,1.47
2019-04-27T17:23:36.011Z,1.83
2019-04-27T17:26:43.464Z,2.07
2019-04-27T17:30:01.224Z,1.47
2019-04-27T17:33:10.850Z,1.43
2019-04-27T17:36:16.289Z,2.33
2019-04-27T17:39:22.947Z,1.50
2019-04-27T17:42:29.224Z,1.27
2019-04-27T17:45:30.493Z,1.97
2019-04-27T17:48:35.835Z,1.13
2019-04-27T17:51:42.963Z,1.93
2019-04-27T17:54:47.629Z,1.87
2019-04-27T17:57:51.732Z,2.47
2019-04-27T18:00:59.947Z,1.47
2019-04-27T18:04:06.293Z,3.13
2019-04-27T18:07:08.945Z,1.30
2019-04-27T18:10:12.923Z,1.57
2019-04-27T18:13:19.036Z,1.40
2019-04-27T18:16:30.895Z,2.23
2019-04-27T18:19:30.812Z,1.77
2019-04-27T18:22:36.485Z,1.87
2019-04-27T18:25:43.627Z,2.40
2019-04-27T18:28:53.742Z,1.20
2019-04-27T18:31:58.221Z,2.13
2019-04-27T18:35:00.309Z,1.23
2019-04-27T18:38:04.871Z,1.53
2019-04-27T18:41:11.702Z,1.53
2019-04-27T18:44:15.658Z,1.27
2019-04-27T18:47:18.922Z,1.20
2019-04-27T18:50:43.480Z,1.93
2019-04-27T18:53:44.790Z,1.40
2019-04-27T18:57:01.716Z,1.27
2019-04-27T18:59:54.613Z,2.13
2019-04-27T19:02:58.461Z,1.77
2019-04-27T19:06:01.791Z,0.97
2019-04-27T19:09:06.077Z,1.10
2019-04-27T19:12:10.246Z,1.50
2019-04-27T19:15:13.502Z,1.23
2019-04-27T19:18:18.684Z,1.10
2019-04-27T19:21:21.732Z,1.10
2019-04-27T19:24:24.967Z,1.27
2019-04-27T19:27:30.851Z,1.00
2019-04-27T19:30:38.403Z,1.67
2019-04-27T19:33:41.645Z,1.10
2019-04-27T19:36:50.643Z,1.63
2019-04-27T19:39:53.895Z,1.80
2019-04-27T19:42:58.730Z,1.13
2019-04-27T19:46:07.893Z,0.93
2019-04-27T19:49:12.119Z,1.00
2019-04-27T19:52:15.356Z,1.27
2019-04-27T19:55:24.259Z,1.23
2019-04-27T19:58:28.786Z,1.20
2019-04-27T20:01:36.410Z,1.30
2019-04-27T20:04:41.460Z,2.13
2019-04-27T20:07:48.230Z,1.27
2019-04-27T20:10:51.546Z,1.10
2019-04-27T20:13:54.797Z,1.23
2019-04-27T20:16:58.029Z,1.00
2019-04-27T20:20:02.162Z,2.00
2019-04-27T20:23:06.316Z,0.93
2019-04-27T20:26:10.533Z,1.27
2019-04-27T20:29:13.777Z,3.13
2019-04-27T20:32:17.923Z,2.70
2019-04-27T20:35:21.974Z,0.97
2019-04-27T20:38:27.303Z,0.90
2019-04-27T20:41:31.934Z,2.00
2019-04-27T20:44:38.306Z,1.83
2019-04-27T20:47:41.540Z,0.90
2019-04-27T20:50:45.649Z,1.10
2019-04-27T20:53:52.941Z,1.40
2019-04-27T20:56:57.298Z,1.03
2019-04-27T21:00:01.936Z,1.47
2019-04-27T21:03:16.514Z,1.17
2019-04-27T21:06:24.320Z,1.40
2019-04-27T21:09:27.596Z,1.13
2019-04-27T21:12:31.494Z,1.10
2019-04-27T21:15:34.809Z,0.73
2019-04-27T21:18:38.053Z,1.23
2019-04-27T21:21:42.739Z,1.10
2019-04-27T21:24:47.051Z,0.73
2019-04-27T21:27:53.415Z,1.23
2019-04-27T21:30:56.654Z,0.80
2019-04-27T21:33:59.898Z,1.13
2019-04-27T21:37:03.130Z,1.03
2019-04-27T21:40:16.727Z,0.80
2019-04-27T21:43:21.629Z,0.80
2019-04-27T21:46:24.975Z,1.10
2019-04-27T21:49:28.272Z,1.20
2019-04-27T21:52:33.150Z,1.07
2019-04-27T21:55:38.488Z,0.77
2019-04-27T21:58:42.119Z,0.87
2019-04-27T22:01:45.924Z,0.90
2019-04-27T22:04:51.835Z,0.70
2019-04-27T22:07:55.110Z,0.70
2019-04-27T22:11:01.374Z,0.93
2019-04-27T22:14:06.032Z,0.70
2019-04-27T22:17:11.047Z,0.90
2019-04-27T22:20:14.371Z,1.13
2019-04-27T22:23:37.102Z,1.23
2019-04-27T22:26:41.527Z,0.90
2019-04-27T22:29:44.845Z,1.00
2019-04-27T22:32:49.020Z,1.23
2019-04-27T22:35:52.252Z,1.67
2019-04-27T22:38:57.136Z,0.80
2019-04-27T22:42:02.016Z,0.90
2019-04-27T22:45:08.191Z,0.80
2019-04-27T22:48:12.371Z,0.70
2019-04-27T22:51:16.594Z,0.63
2019-04-27T22:54:21.656Z,0.83
2019-04-27T22:57:27.383Z,0.90
2019-04-27T23:00:32.263Z,0.53
2019-04-27T23:03:37.141Z,0.70
2019-04-27T23:06:41.847Z,0.93
2019-04-27T23:09:45.254Z,0.90
2019-04-27T23:12:48.507Z,0.80
2019-04-27T23:15:54.434Z,0.70
2019-04-27T23:18:57.738Z,0.90
2019-04-27T23:22:00.984Z,1.33
2019-04-27T23:25:06.167Z,0.90
2019-04-27T23:28:09.432Z,0.70
2019-04-27T23:31:32.086Z,0.70
2019-04-27T23:34:38.223Z,0.60
2019-04-27T23:37:41.473Z,0.70
2019-04-27T23:40:44.702Z,0.60
2019-04-27T23:43:48.882Z,0.70
2019-04-27T23:46:53.136Z,0.60
2019-04-27T23:49:57.295Z,0.60
2019-04-27T23:53:03.173Z,0.60
2019-04-27T23:56:08.302Z,0.60
2019-04-27T23:59:23.765Z,0.60
